Time;durP1;ratioP1;P1;durP2;ratioP2;P2;SDS_P1;SDS_P2;PMS_P1;PMS_P2;Temp;Humidity;BMP_temperature;BMP_pressure;BME280_temperature;BME280_humidity;BME280_pressure;Samples;Min_cycle;Max_cycle;Signal;HPM_P1;HPM_P2
2023/05/12 00:00:17;;;;;;;;;1.75;1.75;;;;;22.02;42.80;101030.50;5077302;27;45335;-70
2023/05/12 00:02:43;;;;;;;;;2.00;2.00;;;;;21.99;42.74;101029.78;5076850;27;45265;-70
2023/05/12 00:05:09;;;;;;;;;1.25;1.00;;;;;22.02;43.04;101030.50;5058711;28;46926;-70
2023/05/12 00:07:35;;;;;;;;;2.50;2.25;;;;;22.02;43.01;101038.50;5076115;27;45450;-70
2023/05/12 00:10:00;;;;;;;;;3.00;2.00;;;;;22.02;42.74;101036.69;5065333;28;45390;-70
2023/05/12 00:12:25;;;;;;;;;3.25;2.00;;;;;21.98;42.57;101032.53;5057400;27;46505;-70
2023/05/12 00:14:51;;;;;;;;;2.00;2.00;;;;;22.00;42.79;101031.47;5062786;28;64712;-70
2023/05/12 00:17:16;;;;;;;;;2.75;1.00;;;;;21.99;43.03;101029.78;5070601;28;70182;-69
2023/05/12 00:19:42;;;;;;;;;2.00;2.00;;;;;21.99;43.01;101035.09;5077102;27;63140;-70
2023/05/12 00:22:09;;;;;;;;;4.00;2.25;;;;;21.98;43.18;101032.53;5072824;27;45491;-70
2023/05/12 00:24:34;;;;;;;;;3.00;2.00;;;;;21.97;42.91;101037.03;5071743;27;46183;-70
2023/05/12 00:27:00;;;;;;;;;2.00;1.00;;;;;21.96;42.67;101023.81;5090804;27;45452;-70
2023/05/12 00:29:25;;;;;;;;;2.00;2.00;;;;;21.97;42.97;101025.50;5055536;28;45248;-70
2023/05/12 00:31:50;;;;;;;;;2.50;1.00;;;;;21.96;42.64;101029.97;5069088;27;45347;-70
2023/05/12 00:34:16;;;;;;;;;2.25;1.75;;;;;21.94;42.77;101029.25;5065588;28;71742;-70
2023/05/12 00:36:41;;;;;;;;;1.00;1.00;;;;;21.96;42.87;101031.81;5063817;28;71758;-70
2023/05/12 00:39:06;;;;;;;;;2.00;1.25;;;;;21.95;43.02;101030.94;5068318;27;61082;-70
2023/05/12 00:41:32;;;;;;;;;1.00;1.00;;;;;21.93;42.97;101027.53;5074799;27;45478;-70
2023/05/12 00:43:57;;;;;;;;;1.25;1.25;;;;;21.96;42.68;101031.81;5060923;28;74888;-70
2023/05/12 00:46:22;;;;;;;;;1.00;1.00;;;;;21.95;42.49;101033.59;5056962;28;66367;-70
2023/05/12 00:48:48;;;;;;;;;1.50;1.25;;;;;21.96;42.66;101032.66;5088430;27;47557;-70
2023/05/12 00:51:15;;;;;;;;;2.75;2.00;;;;;21.95;42.67;101022.94;5070554;28;45470;-70
2023/05/12 00:53:41;;;;;;;;;3.75;1.00;;;;;21.95;42.77;101030.94;5070770;28;46418;-70
2023/05/12 00:56:07;;;;;;;;;1.25;1.25;;;;;21.94;42.69;101023.91;5077512;27;45642;-70
2023/05/12 00:58:32;;;;;;;;;1.00;0.25;;;;;21.92;42.58;101017.84;5078047;27;45422;-70
2023/05/12 01:00:57;;;;;;;;;4.25;1.00;;;;;21.95;42.68;101027.44;5066812;27;45445;-70
2023/05/12 01:03:23;;;;;;;;;1.75;1.75;;;;;21.94;42.58;101023.06;5068899;27;64057;-70
2023/05/12 01:06:12;;;;;;;;;1.00;1.00;;;;;21.93;42.34;101021.34;5072157;28;56031;-70
2023/05/12 01:08:37;;;;;;;;;1.00;1.00;;;;;21.94;42.70;101017.75;5072101;28;45460;-70
2023/05/12 01:11:03;;;;;;;;;0.25;0.25;;;;;21.92;42.39;101022.31;5074001;27;45431;-70
2023/05/12 01:13:28;;;;;;;;;0.25;0.25;;;;;21.91;42.58;101021.47;5077164;28;47000;-70
2023/05/12 01:15:55;;;;;;;;;1.50;1.00;;;;;21.93;42.34;101019.53;5070411;27;48485;-70
2023/05/12 01:18:22;;;;;;;;;2.00;2.00;;;;;21.91;42.46;101018.78;5070937;27;45361;-70
2023/05/12 01:20:47;;;;;;;;;2.00;1.00;;;;;21.93;42.74;101024.88;5059230;28;45684;-71
2023/05/12 01:23:16;;;;;;;;;0.75;0.75;;;;;21.91;42.44;101024.13;5061306;28;46882;-70
2023/05/12 01:25:42;;;;;;;;;1.25;1.25;;;;;21.88;42.89;101019.00;5077528;28;45520;-70
2023/05/12 01:28:08;;;;;;;;;2.00;1.00;;;;;21.91;42.85;101023.28;5056855;28;66980;-70
2023/05/12 01:30:34;;;;;;;;;1.75;1.25;;;;;21.90;42.40;101019.78;5076197;27;56360;-70
2023/05/12 01:33:00;;;;;;;;;1.00;1.00;;;;;21.91;42.42;101020.63;5051408;28;69592;-70
2023/05/12 01:35:25;;;;;;;;;0.25;0.25;;;;;21.90;42.72;101021.56;5069612;27;45869;-70
2023/05/12 01:37:51;;;;;;;;;1.00;1.00;;;;;21.91;42.83;101026.78;5064060;27;45625;-70
2023/05/12 01:40:16;;;;;;;;;2.25;2.00;;;;;21.89;42.73;101025.22;5056655;28;75409;-70
2023/05/12 01:42:42;;;;;;;;;1.00;1.00;;;;;21.90;42.46;101026.88;5054752;28;47821;-71
2023/05/12 01:45:08;;;;;;;;;2.25;1.00;;;;;21.89;42.39;101028.72;5066154;28;45395;-70
2023/05/12 01:47:33;;;;;;;;;1.00;1.00;;;;;21.89;42.69;101028.72;5055760;28;45327;-70
2023/05/12 01:49:58;;;;;;;;;1.00;1.00;;;;;21.89;42.76;101028.72;5058028;28;64075;-70
2023/05/12 01:52:24;;;;;;;;;1.50;1.00;;;;;21.87;42.70;101024.44;5072369;28;73454;-70
2023/05/12 01:54:50;;;;;;;;;2.00;0.50;;;;;21.88;42.63;101024.34;5069545;27;45300;-70
2023/05/12 01:57:16;;;;;;;;;1.75;1.75;;;;;21.89;42.23;101027.88;5071572;28;45371;-71
2023/05/12 01:59:41;;;;;;;;;2.50;0.50;;;;;21.87;42.58;101019.97;5068437;28;45264;-70
2023/05/12 02:02:06;;;;;;;;;0.25;0.25;;;;;21.87;42.16;101021.78;5071161;27;68529;-70
2023/05/12 02:04:31;;;;;;;;;1.00;0.25;;;;;21.87;42.13;101021.78;5049465;28;48833;-70
2023/05/12 02:06:57;;;;;;;;;3.00;1.75;;;;;21.88;42.23;101024.34;5066164;28;62988;-71
2023/05/12 02:09:22;;;;;;;;;0.25;0.25;;;;;21.87;42.64;101025.31;5066508;27;45374;-70
2023/05/12 02:11:48;;;;;;;;;0.25;0.25;;;;;21.85;42.68;101027.22;5071340;28;46017;-70
2023/05/12 02:14:13;;;;;;;;;1.75;1.00;;;;;21.83;42.13;101018.47;5067471;27;45367;-71
2023/05/12 02:16:39;;;;;;;;;1.00;0.75;;;;;21.86;42.78;101025.41;5072173;27;45416;-70
2023/05/12 02:19:04;;;;;;;;;2.00;1.00;;;;;21.86;42.65;101026.25;5081559;27;54195;-70
2023/05/12 02:21:30;;;;;;;;;1.00;1.00;;;;;21.86;42.44;101026.25;5051953;28;72717;-70
2023/05/12 02:23:55;;;;;;;;;0.00;0.00;;;;;21.86;42.20;101028.91;5076372;27;45327;-70
2023/05/12 02:26:20;;;;;;;;;2.75;1.00;;;;;21.86;42.17;101020.94;5079986;27;45436;-71
2023/05/12 02:28:46;;;;;;;;;2.25;1.00;;;;;21.84;42.12;101017.53;5070024;27;67792;-70
2023/05/12 02:31:11;;;;;;;;;1.00;1.00;;;;;21.85;42.46;101018.38;5075473;27;47981;-71
2023/05/12 02:33:36;;;;;;;;;1.25;0.25;;;;;21.84;42.69;101025.50;5076369;28;51290;-71
2023/05/12 02:36:02;;;;;;;;;0.25;0.25;;;;;21.82;42.38;101014.13;5070425;27;45350;-71
2023/05/12 02:38:28;;;;;;;;;1.25;1.00;;;;;21.82;42.17;101016.78;5078237;28;46412;-70
2023/05/12 02:40:53;;;;;;;;;1.00;1.00;;;;;21.84;42.64;101019.34;5081047;27;46867;-71
2023/05/12 02:43:18;;;;;;;;;1.00;1.00;;;;;21.83;42.41;101017.63;5074377;27;70314;-70
2023/05/12 02:45:44;;;;;;;;;0.00;0.00;;;;;21.84;42.36;101011.34;5070143;27;45763;-70
2023/05/12 02:48:09;;;;;;;;;3.25;1.00;;;;;21.81;42.58;101012.41;5074895;27;64288;-71
2023/05/12 02:50:34;;;;;;;;;1.25;1.25;;;;;21.80;42.53;101008.88;5071055;27;48150;-71
2023/05/12 02:53:00;;;;;;;;;1.50;1.00;;;;;21.83;42.07;101021.13;5074662;27;45410;-70
2023/05/12 02:55:26;;;;;;;;;0.00;0.00;;;;;21.79;42.08;101012.50;5057964;28;61636;-70
2023/05/12 02:57:52;;;;;;;;;3.25;1.25;;;;;21.79;42.17;101015.16;5076451;27;45360;-70
2023/05/12 03:00:17;;;;;;;;;0.00;0.00;;;;;21.83;42.62;101020.28;5077494;27;46048;-71
2023/05/12 03:02:43;;;;;;;;;1.25;1.00;;;;;21.80;42.63;101019.56;5071272;28;45301;-70
2023/05/12 03:05:08;;;;;;;;;2.75;1.00;;;;;21.80;42.47;101013.38;5068455;28;45438;-70
2023/05/12 03:07:34;;;;;;;;;1.00;1.00;;;;;21.80;42.21;101019.56;5071832;27;45473;-70
2023/05/12 03:10:00;;;;;;;;;0.00;0.00;;;;;21.82;42.57;101021.28;5074080;27;47535;-70
2023/05/12 03:12:28;;;;;;;;;2.50;0.00;;;;;21.82;42.22;101026.59;5083440;27;45415;-70
2023/05/12 03:14:53;;;;;;;;;2.00;1.00;;;;;21.79;42.48;101020.50;5050808;28;45330;-70
2023/05/12 03:17:18;;;;;;;;;1.00;1.00;;;;;21.79;42.28;101017.81;5081378;27;61479;-70
2023/05/12 03:19:44;;;;;;;;;0.25;0.25;;;;;21.79;42.39;101014.31;5056565;28;74615;-71
2023/05/12 03:22:09;;;;;;;;;2.00;0.75;;;;;21.79;42.14;101011.66;5069100;28;66107;-71
2023/05/12 03:24:35;;;;;;;;;2.50;1.00;;;;;21.78;42.06;101012.63;5065752;28;66662;-71
2023/05/12 03:27:00;;;;;;;;;1.00;1.00;;;;;21.75;42.18;101011.03;5057047;28;45269;-70
2023/05/12 03:29:26;;;;;;;;;0.00;0.00;;;;;21.77;42.09;101014.44;5069038;28;71962;-71
2023/05/12 03:31:51;;;;;;;;;0.75;0.25;;;;;21.77;42.28;101017.09;5069595;28;69245;-71
2023/05/12 03:34:17;;;;;;;;;0.50;0.00;;;;;21.77;42.30;101014.44;5075239;27;45522;-71
2023/05/12 03:36:42;;;;;;;;;5.00;2.00;;;;;21.74;42.02;101009.34;5063381;27;45470;-71
2023/05/12 03:39:08;;;;;;;;;1.50;0.25;;;;;21.76;42.42;101015.41;5068544;27;45396;-71
2023/05/12 03:41:34;;;;;;;;;2.25;1.00;;;;;21.77;42.37;101019.75;5068347;27;45477;-70
2023/05/12 03:43:59;;;;;;;;;1.00;0.00;;;;;21.75;42.34;101015.50;5069276;27;45554;-71
2023/05/12 03:46:25;;;;;;;;;1.25;0.25;;;;;21.76;42.16;101011.88;5069250;27;68563;-71
2023/05/12 03:48:50;;;;;;;;;1.00;1.00;;;;;21.76;42.33;101015.41;5070155;27;45542;-70
2023/05/12 03:51:15;;;;;;;;;0.50;0.50;;;;;21.75;42.48;101013.69;5070208;28;45315;-70
2023/05/12 03:53:44;;;;;;;;;1.00;1.00;;;;;21.75;42.00;101013.69;5068396;28;58150;-71
2023/05/12 03:56:09;;;;;;;;;2.00;1.00;;;;;21.75;42.10;101010.19;5088372;27;45447;-70
2023/05/12 03:58:35;;;;;;;;;1.25;0.50;;;;;21.74;42.54;101022.66;5057525;28;47075;-71
2023/05/12 04:01:00;;;;;;;;;1.25;1.00;;;;;21.75;42.18;101021.69;5078747;27;45683;-70
2023/05/12 04:03:27;;;;;;;;;1.00;1.00;;;;;21.73;42.49;101017.44;5079781;28;45476;-70
2023/05/12 04:06:02;;;;;;;;;3.00;0.00;;;;;21.74;42.13;101019.13;5070585;27;45627;-71
2023/05/12 04:08:28;;;;;;;;;0.50;0.00;;;;;21.72;42.10;101027.22;5076972;27;45524;-71
2023/05/12 04:10:57;;;;;;;;;1.25;1.00;;;;;21.72;42.41;101016.56;5059630;28;45757;-71
2023/05/12 04:13:23;;;;;;;;;1.00;1.00;;;;;21.74;42.50;101024.44;5071166;28;45335;-70
2023/05/12 04:15:49;;;;;;;;;1.00;0.25;;;;;21.73;42.03;101026.25;5077593;27;45573;-71
2023/05/12 04:18:15;;;;;;;;;1.75;1.00;;;;;21.73;42.47;101022.75;5071917;28;45561;-71
2023/05/12 04:20:40;;;;;;;;;2.00;1.25;;;;;21.70;42.25;101013.16;5075672;28;45702;-71
2023/05/12 04:23:05;;;;;;;;;1.00;1.00;;;;;21.71;42.10;101017.53;5070074;28;54007;-70
2023/05/12 04:25:31;;;;;;;;;0.50;0.50;;;;;21.73;42.02;101014.75;5086065;27;48602;-70
2023/05/12 04:27:56;;;;;;;;;2.25;0.75;;;;;21.71;42.06;101021.97;5065801;27;74531;-71
2023/05/12 04:30:22;;;;;;;;;3.75;1.00;;;;;21.71;41.99;101019.31;5070639;27;45308;-71
2023/05/12 04:32:47;;;;;;;;;0.25;0.25;;;;;21.70;42.13;101022.97;5064004;28;53687;-70
2023/05/12 04:35:13;;;;;;;;;0.00;0.00;;;;;21.65;41.78;101006.44;5067730;27;45507;-71
2023/05/12 04:37:38;;;;;;;;;2.00;1.00;;;;;21.69;41.93;101021.25;5074633;28;45509;-70
2023/05/12 04:40:06;;;;;;;;;1.00;0.00;;;;;21.70;42.45;101017.63;5073886;28;45410;-70
2023/05/12 04:42:31;;;;;;;;;1.00;0.00;;;;;21.68;42.24;101025.72;5067550;28;45468;-71
2023/05/12 04:44:56;;;;;;;;;0.25;0.00;;;;;21.69;42.03;101026.56;5066250;27;45319;-71
2023/05/12 04:47:22;;;;;;;;;1.00;1.00;;;;;21.68;42.19;101025.72;5072906;28;71797;-71
2023/05/12 04:49:47;;;;;;;;;3.00;1.25;;;;;21.68;42.39;101025.72;5081750;27;45382;-71
2023/05/12 04:52:13;;;;;;;;;1.00;1.00;;;;;21.69;42.33;101027.44;5073999;28;58940;-70
2023/05/12 04:54:38;;;;;;;;;2.75;1.25;;;;;21.68;41.83;101024.88;5078399;28;45249;-70
2023/05/12 04:57:04;;;;;;;;;4.00;1.25;;;;;21.67;42.13;101021.34;5070471;28;53885;-70
2023/05/12 04:59:30;;;;;;;;;4.75;1.00;;;;;21.68;41.86;101030.22;5069898;28;45417;-70
2023/05/12 05:01:56;;;;;;;;;1.00;1.00;;;;;21.66;42.44;101032.13;5070340;28;45355;-70
2023/05/12 05:04:21;;;;;;;;;0.00;0.00;;;;;21.67;41.73;101037.31;5072361;27;45594;-71
2023/05/12 05:06:47;;;;;;;;;1.00;1.00;;;;;21.66;41.78;101034.78;5076590;28;45607;-70
2023/05/12 05:09:12;;;;;;;;;0.75;0.75;;;;;21.67;41.94;101044.47;5069937;27;65931;-71
2023/05/12 05:11:37;;;;;;;;;1.00;1.00;;;;;21.65;41.85;101041.91;5066365;27;45457;-70
2023/05/12 05:14:03;;;;;;;;;1.50;1.00;;;;;21.66;42.30;101053.44;5072847;27;69894;-71
2023/05/12 05:16:28;;;;;;;;;1.00;1.00;;;;;21.66;42.22;101045.44;5070484;28;45419;-71
2023/05/12 05:18:53;;;;;;;;;1.00;1.00;;;;;21.65;42.01;101052.56;5071622;28;45465;-71
2023/05/12 05:21:19;;;;;;;;;2.00;1.25;;;;;21.65;41.68;101049.06;5067595;28;56024;-71
2023/05/12 05:23:44;;;;;;;;;2.00;1.00;;;;;21.65;42.06;101055.22;5075546;27;49463;-71
2023/05/12 05:26:09;;;;;;;;;1.00;1.00;;;;;21.65;41.85;101055.22;5058633;27;46845;-71
2023/05/12 05:28:35;;;;;;;;;1.00;0.75;;;;;21.67;41.85;101057.78;5063072;28;45483;-70
2023/05/12 05:31:01;;;;;;;;;1.00;1.00;;;;;21.65;41.80;101054.38;5048043;28;45271;-70
2023/05/12 05:33:26;;;;;;;;;2.25;1.00;;;;;21.63;41.68;101054.50;5068074;28;51954;-71
2023/05/12 05:35:52;;;;;;;;;4.00;1.00;;;;;21.64;41.79;101056.22;5070345;27;47460;-71
2023/05/12 05:38:17;;;;;;;;;1.00;1.00;;;;;21.62;41.71;101052.81;5064156;27;45333;-70
2023/05/12 05:40:45;;;;;;;;;2.00;2.00;;;;;21.62;41.94;101055.47;5072263;27;52683;-70
2023/05/12 05:43:10;;;;;;;;;1.50;1.00;;;;;21.65;41.94;101060.56;5067800;28;45546;-71
2023/05/12 05:45:36;;;;;;;;;1.50;1.00;;;;;21.63;42.03;101056.31;5069187;27;69548;-70
2023/05/12 05:48:01;;;;;;;;;0.50;0.50;;;;;21.62;41.33;101058.13;5077269;27;45401;-70
2023/05/12 05:50:26;;;;;;;;;0.00;0.00;;;;;21.63;41.55;101059.81;5056244;28;49079;-70
2023/05/12 05:52:53;;;;;;;;;1.00;1.00;;;;;21.64;41.98;101060.66;5069958;27;73113;-70
2023/05/12 05:55:20;;;;;;;;;3.00;0.00;;;;;21.63;41.42;101062.47;5074738;27;46225;-71
2023/05/12 05:57:45;;;;;;;;;0.00;0.00;;;;;21.59;41.92;101053.00;5078600;27;45541;-70
2023/05/12 06:00:11;;;;;;;;;2.00;1.00;;;;;21.61;41.37;101062.56;5079188;27;45292;-70
2023/05/12 06:02:37;;;;;;;;;3.00;1.25;;;;;21.61;41.61;101059.06;5078153;27;45372;-70
2023/05/12 06:05:02;;;;;;;;;1.75;1.00;;;;;21.60;41.43;101058.22;5074737;27;47229;-71
2023/05/12 06:07:28;;;;;;;;;1.00;1.00;;;;;21.60;41.34;101058.22;5058075;27;45477;-70
2023/05/12 06:09:53;;;;;;;;;1.25;1.00;;;;;21.62;41.85;101063.44;5059763;27;45398;-70
2023/05/12 06:12:19;;;;;;;;;5.00;2.00;;;;;21.61;41.86;101057.25;5079040;27;45384;-70
2023/05/12 06:14:44;;;;;;;;;0.25;0.25;;;;;21.63;41.77;101061.63;5075434;27;46206;-70
2023/05/12 06:17:10;;;;;;;;;2.75;1.00;;;;;21.62;41.45;101063.44;5060206;27;63651;-70
2023/05/12 06:19:35;;;;;;;;;1.25;0.25;;;;;21.63;41.54;101062.47;5063560;28;62219;-70
2023/05/12 06:22:01;;;;;;;;;3.75;1.50;;;;;21.64;41.48;101058.88;5062110;27;45473;-70
2023/05/12 06:24:26;;;;;;;;;0.50;0.50;;;;;21.65;41.76;101063.22;5081135;27;47040;-70
2023/05/12 06:26:51;;;;;;;;;1.00;1.00;;;;;21.65;41.39;101060.56;5079659;27;45438;-69
2023/05/12 06:29:17;;;;;;;;;1.00;1.00;;;;;21.67;41.68;101063.13;5072110;27;45279;-70
2023/05/12 06:31:42;;;;;;;;;1.25;1.25;;;;;21.68;41.97;101070.16;5059369;28;45435;-70
2023/05/12 06:34:08;;;;;;;;;1.50;1.00;;;;;21.69;41.77;101070.06;5056137;27;74505;-70
2023/05/12 06:36:33;;;;;;;;;1.25;1.00;;;;;21.70;41.90;101068.25;5070913;28;57203;-70
2023/05/12 06:38:58;;;;;;;;;3.00;1.00;;;;;21.71;42.02;101070.81;5069764;28;45292;-70
2023/05/12 06:41:24;;;;;;;;;0.50;0.50;;;;;21.71;41.42;101065.47;5080668;28;45346;-70
2023/05/12 06:43:50;;;;;;;;;0.00;0.00;;;;;21.74;41.67;101073.28;5076944;27;58432;-70
2023/05/12 06:46:16;;;;;;;;;2.25;0.25;;;;;21.75;42.12;101074.97;5073955;27;45433;-70
2023/05/12 06:48:41;;;;;;;;;5.00;1.50;;;;;21.78;41.72;101068.59;5061919;28;45302;-70
2023/05/12 06:51:07;;;;;;;;;1.50;0.75;;;;;21.79;42.07;101076.44;5078980;27;65672;-70
2023/05/12 06:53:36;;;;;;;;;2.00;1.00;;;;;21.82;41.60;101080.72;5060315;27;47532;-70
2023/05/12 06:56:02;;;;;;;;;1.00;0.25;;;;;21.83;41.71;101078.91;5089026;27;45461;-70
2023/05/12 06:58:28;;;;;;;;;1.50;1.00;;;;;21.83;41.79;101071.75;5055280;28;45375;-70
2023/05/12 07:00:56;;;;;;;;;3.00;1.00;;;;;21.85;41.77;101069.88;5056598;28;45563;-70
2023/05/12 07:03:22;;;;;;;;;1.00;1.00;;;;;21.87;41.54;101067.94;5086414;27;46847;-70
2023/05/12 07:05:47;;;;;;;;;0.00;0.00;;;;;21.88;41.56;101068.78;5060777;27;45513;-70
2023/05/12 07:08:12;;;;;;;;;2.50;1.00;;;;;21.91;41.82;101074.75;5074346;27;45407;-70
2023/05/12 07:10:38;;;;;;;;;0.25;0.25;;;;;21.93;41.81;101072.81;5067806;27;45333;-70
2023/05/12 07:13:04;;;;;;;;;0.25;0.25;;;;;21.93;41.55;101072.81;5055894;28;46918;-70
2023/05/12 07:15:29;;;;;;;;;1.00;1.00;;;;;21.95;41.44;101064.72;5066523;27;45472;-70
2023/05/12 07:17:55;;;;;;;;;1.75;1.00;;;;;21.95;41.45;101067.41;5078293;27;45677;-70
2023/05/12 07:20:21;;;;;;;;;2.00;0.00;;;;;21.99;41.83;101066.22;5079806;27;45509;-70
2023/05/12 07:22:46;;;;;;;;;0.75;0.00;;;;;22.01;41.39;101074.97;5059875;27;47810;-70
2023/05/12 07:25:12;;;;;;;;;0.25;0.25;;;;;21.98;41.62;101068.03;5073352;27;45388;-70
2023/05/12 07:27:37;;;;;;;;;3.00;1.50;;;;;22.02;41.39;101063.34;5058788;27;45462;-70
2023/05/12 07:30:05;;;;;;;;;0.50;0.50;;;;;22.05;41.95;101068.47;5048809;28;46059;-70
2023/05/12 07:32:30;;;;;;;;;4.75;1.00;;;;;22.04;41.89;101061.41;5070058;27;45339;-70
2023/05/12 07:34:56;;;;;;;;;1.00;1.00;;;;;22.06;41.41;101066.66;5054933;27;58347;-70
2023/05/12 07:37:21;;;;;;;;;0.25;0.25;;;;;22.08;41.64;101060.25;5084673;27;45680;-70
2023/05/12 07:39:47;;;;;;;;;1.25;0.00;;;;;22.10;41.96;101063.66;5072348;27;45279;-70
2023/05/12 07:42:12;;;;;;;;;0.00;0.00;;;;;22.12;41.87;101053.75;5074396;27;69791;-70
2023/05/12 07:44:37;;;;;;;;;2.00;1.00;;;;;22.13;41.46;101059.91;5063396;28;71245;-70
2023/05/12 07:47:04;;;;;;;;;0.00;0.00;;;;;22.15;41.71;101060.66;5070739;27;45355;-70
2023/05/12 07:49:29;;;;;;;;;0.00;0.00;;;;;22.15;41.52;101061.53;5073360;28;45532;-70
2023/05/12 07:51:54;;;;;;;;;1.00;1.00;;;;;22.15;41.58;101053.53;5073715;27;70506;-70
2023/05/12 07:54:19;;;;;;;;;0.00;0.00;;;;;22.17;41.79;101061.44;5071463;28;68666;-70
2023/05/12 07:56:45;;;;;;;;;1.00;1.00;;;;;22.19;41.61;101059.50;5075829;27;52473;-70
2023/05/12 07:59:12;;;;;;;;;1.00;0.25;;;;;22.17;41.50;101056.94;5075238;27;69722;-70
2023/05/12 08:01:37;;;;;;;;;1.00;0.00;;;;;22.20;41.81;101053.19;5059072;28;48170;-70
2023/05/12 08:04:02;;;;;;;;;0.00;0.00;;;;;22.22;41.26;101053.94;5074339;27;63332;-70
2023/05/12 08:06:27;;;;;;;;;0.25;0.25;;;;;22.22;41.63;101055.75;5070013;27;45446;-70
2023/05/12 08:08:56;;;;;;;;;0.25;0.00;;;;;22.22;41.65;101064.59;5068916;27;67484;-70
2023/05/12 08:11:22;;;;;;;;;1.75;0.00;;;;;22.23;41.69;101058.31;5072126;28;46901;-70
2023/05/12 08:13:47;;;;;;;;;0.25;0.25;;;;;22.23;41.17;101062.81;5073392;27;69712;-70
2023/05/12 08:16:12;;;;;;;;;2.00;0.25;;;;;22.23;41.20;101063.66;5069253;27;65783;-70
2023/05/12 08:18:37;;;;;;;;;0.00;0.00;;;;;22.24;42.05;101068.03;5063650;27;49079;-71
2023/05/12 08:21:03;;;;;;;;;1.00;0.25;;;;;22.24;41.50;101062.69;5078039;27;60778;-70
2023/05/12 08:23:28;;;;;;;;;1.25;1.00;;;;;22.25;41.27;101066.22;5063120;27;45163;-70
2023/05/12 08:25:54;;;;;;;;;3.25;1.00;;;;;22.26;41.33;101062.59;5058305;28;71575;-70
2023/05/12 08:28:20;;;;;;;;;1.75;0.25;;;;;22.24;41.10;101062.69;5072463;27;45699;-70
2023/05/12 08:30:45;;;;;;;;;0.25;0.25;;;;;22.25;41.29;101064.38;5074477;27;45287;-71
2023/05/12 08:33:11;;;;;;;;;2.00;1.00;;;;;22.23;41.01;101076.97;5072721;28;68954;-70
2023/05/12 08:35:36;;;;;;;;;0.75;0.75;;;;;22.25;41.05;101071.53;5071686;27;45430;-71
2023/05/12 08:38:02;;;;;;;;;1.50;0.75;;;;;22.24;41.47;101069.81;5074277;28;45885;-71
2023/05/12 08:40:30;;;;;;;;;0.00;0.00;;;;;22.22;41.56;101077.91;5055723;28;47168;-70
2023/05/12 08:43:11;;;;;;;;;0.25;0.25;;;;;22.23;41.72;101081.47;5071849;27;45731;-70
2023/05/12 08:45:37;;;;;;;;;0.25;0.25;;;;;22.24;41.58;101091.16;5062006;28;45440;-70
2023/05/12 08:48:05;;;;;;;;;0.25;0.25;;;;;22.24;41.49;101091.16;5071726;27;45886;-70
2023/05/12 08:50:31;;;;;;;;;1.00;1.00;;;;;22.23;41.20;101084.97;5071402;27;46505;-70
2023/05/12 08:52:57;;;;;;;;;3.00;1.00;;;;;22.23;41.56;101087.63;5074190;27;45340;-70
2023/05/12 08:55:23;;;;;;;;;2.50;1.00;;;;;22.22;41.61;101091.25;5067474;27;64195;-70
2023/05/12 08:57:48;;;;;;;;;0.25;0.25;;;;;22.23;41.75;101090.31;5075050;28;70790;-70
2023/05/12 09:00:15;;;;;;;;;1.00;1.00;;;;;22.23;41.13;101084.97;5062132;28;48341;-70
2023/05/12 09:02:42;;;;;;;;;1.00;1.00;;;;;22.25;41.31;101087.53;5070080;27;45228;-70
2023/05/12 09:05:10;;;;;;;;;1.25;1.25;;;;;22.25;41.84;101084.88;5068807;28;45368;-70
2023/05/12 09:07:41;;;;;;;;;0.25;0.25;;;;;22.24;41.39;101089.34;5075782;27;45428;-70
2023/05/12 09:10:18;;;;;;;;;0.50;0.50;;;;;22.26;41.78;101097.25;5055113;28;48100;-70
2023/05/12 09:12:46;;;;;;;;;1.00;1.00;;;;;22.27;41.21;101093.63;5071475;28;45362;-71
2023/05/12 09:15:15;;;;;;;;;1.75;1.00;;;;;22.26;41.13;101092.75;5078817;27;45362;-71
2023/05/12 09:17:40;;;;;;;;;1.50;1.00;;;;;22.26;41.22;101092.75;5067520;27;45247;-70
2023/05/12 09:20:06;;;;;;;;;0.25;0.25;;;;;22.27;41.76;101096.31;5075423;27;69256;-71
2023/05/12 09:22:33;;;;;;;;;1.00;1.00;;;;;22.29;41.54;101097.03;5072597;28;45667;-71
2023/05/12 09:24:59;;;;;;;;;0.25;0.25;;;;;22.28;41.40;101092.69;5073497;28;45481;-71
2023/05/12 09:27:26;;;;;;;;;0.25;0.25;;;;;22.29;41.23;101091.72;5066974;28;45848;-71
2023/05/12 09:29:52;;;;;;;;;0.25;0.25;;;;;22.28;41.84;101096.19;5067521;28;46408;-70
2023/05/12 09:32:17;;;;;;;;;0.25;0.25;;;;;22.28;41.12;101098.03;5068138;28;45344;-71
2023/05/12 09:34:42;;;;;;;;;3.00;1.75;;;;;22.29;41.77;101094.38;5061644;28;45277;-70
2023/05/12 09:37:08;;;;;;;;;1.25;1.25;;;;;22.28;41.85;101090.03;5074261;28;45430;-71
2023/05/12 09:39:34;;;;;;;;;0.25;0.25;;;;;22.26;41.34;101083.91;5086454;27;45376;-71
2023/05/12 09:42:00;;;;;;;;;0.25;0.25;;;;;22.28;41.69;101093.53;5083863;27;45762;-71
2023/05/12 09:44:27;;;;;;;;;1.00;1.00;;;;;22.29;41.55;101097.91;5068009;28;45664;-70
2023/05/12 09:46:53;;;;;;;;;2.25;1.25;;;;;22.27;41.68;101091.81;5067038;27;45566;-70
2023/05/12 09:49:26;;;;;;;;;1.75;0.25;;;;;22.28;41.61;101096.19;5065750;28;47264;-71
2023/05/12 09:51:52;;;;;;;;;2.75;2.00;;;;;22.27;41.64;101082.97;5075071;27;45414;-71
2023/05/12 09:54:28;;;;;;;;;0.25;0.25;;;;;22.29;41.34;101092.59;5072777;28;45505;-71
2023/05/12 09:56:58;;;;;;;;;1.25;1.25;;;;;22.28;41.76;101096.19;5069010;27;45359;-71
2023/05/12 09:59:25;;;;;;;;;1.00;1.00;;;;;22.27;41.38;101093.63;5090527;27;46590;-71
2023/05/12 10:01:52;;;;;;;;;1.75;1.00;;;;;22.29;41.73;101097.91;5057627;28;45755;-71
2023/05/12 10:04:18;;;;;;;;;0.25;0.25;;;;;22.27;41.68;101088.31;5072474;27;45533;-71
2023/05/12 10:06:46;;;;;;;;;2.00;2.00;;;;;22.28;41.99;101090.88;5069209;28;45591;-71
2023/05/12 10:09:32;;;;;;;;;1.00;1.00;;;;;22.29;41.84;101089.03;5071173;28;47456;-70
2023/05/12 10:11:58;;;;;;;;;2.00;1.00;;;;;22.29;41.91;101095.25;5067159;28;45434;-71
2023/05/12 10:14:23;;;;;;;;;1.00;1.00;;;;;22.26;41.83;101090.09;5053546;28;45411;-71
2023/05/12 10:16:49;;;;;;;;;2.00;1.00;;;;;22.26;41.75;101090.09;5072310;28;45244;-71
2023/05/12 10:19:16;;;;;;;;;1.25;1.25;;;;;22.27;41.60;101089.16;5066814;28;46246;-71
2023/05/12 10:21:45;;;;;;;;;1.00;1.00;;;;;22.26;41.71;101087.44;5057124;28;45669;-70
2023/05/12 10:24:11;;;;;;;;;1.00;1.00;;;;;22.26;41.94;101089.25;5072495;28;45461;-70
2023/05/12 10:26:38;;;;;;;;;2.25;0.25;;;;;22.27;41.55;101086.47;5074172;28;45497;-71
2023/05/12 10:29:04;;;;;;;;;3.25;0.50;;;;;22.26;41.60;101092.75;5083279;27;46192;-71
2023/05/12 10:31:30;;;;;;;;;1.00;1.00;;;;;22.28;41.66;101087.34;5057420;28;45914;-70
2023/05/12 10:34:00;;;;;;;;;1.25;0.25;;;;;22.28;41.84;101088.19;5076028;27;45426;-71
2023/05/12 10:36:26;;;;;;;;;1.00;0.50;;;;;22.29;41.75;101089.03;5096976;27;45322;-71
2023/05/12 10:38:51;;;;;;;;;0.25;0.25;;;;;22.28;41.71;101085.53;5077896;27;46163;-70
2023/05/12 10:41:28;;;;;;;;;1.75;0.50;;;;;22.29;41.98;101086.38;5075712;28;45337;-70
2023/05/12 10:43:54;;;;;;;;;2.25;0.75;;;;;22.29;41.84;101089.03;5060053;28;45376;-70
2023/05/12 10:46:21;;;;;;;;;2.25;1.50;;;;;22.31;41.92;101088.00;5074487;27;45316;-70
2023/05/12 10:48:58;;;;;;;;;1.75;1.25;;;;;22.31;41.81;101088.00;5068413;27;46867;-70
2023/05/12 10:51:27;;;;;;;;;1.75;0.25;;;;;22.30;41.97;101080.94;5073357;28;45663;-70
2023/05/12 10:54:02;;;;;;;;;1.00;1.00;;;;;22.32;42.09;101084.34;5072682;27;45245;-71
2023/05/12 10:56:48;;;;;;;;;0.75;0.25;;;;;22.32;41.74;101078.16;5075874;27;45330;-70
2023/05/12 10:59:23;;;;;;;;;0.25;0.25;;;;;22.32;41.88;101084.34;5084447;27;46621;-71
2023/05/12 11:02:13;;;;;;;;;0.75;0.25;;;;;22.34;42.25;101081.56;5072865;27;45749;-70
2023/05/12 11:04:46;;;;;;;;;2.75;1.75;;;;;22.35;41.80;101078.81;5067187;27;45530;-70
2023/05/12 11:07:13;;;;;;;;;2.00;2.00;;;;;22.35;42.10;101077.97;5074764;27;45702;-71
2023/05/12 11:09:40;;;;;;;;;1.75;1.75;;;;;22.33;42.12;101071.88;5067597;28;45598;-71
2023/05/12 11:12:07;;;;;;;;;2.00;1.00;;;;;22.34;42.16;101077.09;5066863;27;45758;-71
2023/05/12 11:14:34;;;;;;;;;0.25;0.25;;;;;22.33;41.63;101066.56;5052512;28;45547;-70
2023/05/12 11:16:59;;;;;;;;;1.25;0.25;;;;;22.34;42.08;101077.09;5073242;27;45554;-71
2023/05/12 11:19:25;;;;;;;;;2.25;2.25;;;;;22.34;41.69;101077.09;5072139;27;45899;-71